Time;durP1;ratioP1;P1;durP2;ratioP2;P2;SDS_P1;SDS_P2;PMS_P1;PMS_P2;Temp;Humidity;BMP_temperature;BMP_pressure;BME280_temperature;BME280_humidity;BME280_pressure;Samples;Min_cycle;Max_cycle;Signal;HPM_P1;HPM_P2
2023/09/08 00:01:14;;;;;;;9.20;5.80;;;22.30;1.00;;;;;;4986070;28;20194;-71
2023/09/08 00:03:39;;;;;;;9.47;5.80;;;22.20;1.00;;;;;;4990056;28;20242;-74
2023/09/08 00:06:05;;;;;;;8.03;6.30;;;22.20;1.00;;;;;;4990089;28;20178;-73
2023/09/08 00:08:30;;;;;;;8.90;6.20;;;21.20;1.00;;;;;;4990502;28;20201;-73
2023/09/08 00:10:56;;;;;;;8.73;6.23;;;22.10;1.00;;;;;;4989635;28;20194;-74
2023/09/08 00:13:21;;;;;;;9.27;5.77;;;22.00;1.00;;;;;;4990105;28;20182;-73
2023/09/08 00:15:47;;;;;;;8.20;6.03;;;22.00;1.00;;;;;;4990294;28;20672;-74
2023/09/08 00:18:12;;;;;;;10.03;6.00;;;21.90;1.00;;;;;;4955516;28;20187;-73
2023/09/08 00:20:38;;;;;;;9.90;6.13;;;22.00;1.00;;;;;;4991254;28;20195;-73
2023/09/08 00:23:03;;;;;;;8.57;5.93;;;22.00;1.00;;;;;;4989593;28;20195;-73
2023/09/08 00:25:29;;;;;;;8.90;6.30;;;22.00;1.00;;;;;;4987797;28;20206;-73
2023/09/08 00:27:54;;;;;;;14.70;6.00;;;22.60;1.00;;;;;;4970237;28;20668;-75
2023/09/08 00:30:20;;;;;;;10.77;5.40;;;22.10;1.00;;;;;;4989926;28;20210;-73
2023/09/08 00:32:45;;;;;;;7.83;5.63;;;22.00;1.00;;;;;;4989757;28;20214;-73
2023/09/08 00:35:13;;;;;;;7.77;5.40;;;22.10;1.00;;;;;;4989627;28;20217;-74
2023/09/08 00:37:40;;;;;;;10.53;5.83;;;22.10;1.00;;;;;;4990237;28;20178;-73
2023/09/08 00:40:08;;;;;;;9.87;5.90;;;22.10;1.00;;;;;;4989717;28;20465;-74
2023/09/08 00:42:33;;;;;;;7.60;5.80;;;22.10;1.00;;;;;;4972025;28;20468;-73
2023/09/08 00:44:59;;;;;;;8.00;5.80;;;22.10;1.00;;;;;;4989128;28;20858;-73
2023/09/08 00:47:25;;;;;;;9.00;6.03;;;22.10;1.00;;;;;;4990122;28;20257;-73
2023/09/08 00:49:51;;;;;;;10.90;6.33;;;22.10;1.00;;;;;;4989529;28;20341;-73
2023/09/08 00:52:17;;;;;;;12.30;5.60;;;22.00;1.00;;;;;;4989477;28;20198;-73
2023/09/08 00:54:42;;;;;;;10.07;6.33;;;22.00;1.00;;;;;;4971834;28;20453;-74
2023/09/08 00:57:09;;;;;;;11.67;6.20;;;22.00;1.00;;;;;;4992992;28;20429;-75
2023/09/08 00:59:35;;;;;;;7.13;5.40;;;22.00;1.00;;;;;;4990047;28;20278;-74
2023/09/08 01:02:02;;;;;;;7.53;6.10;;;22.00;1.00;;;;;;4989420;28;20480;-72
2023/09/08 01:04:28;;;;;;;8.50;6.10;;;22.00;1.00;;;;;;4987152;28;20469;-74
2023/09/08 01:06:55;;;;;;;7.53;6.10;;;22.10;1.00;;;;;;4986284;28;20441;-73
2023/09/08 01:09:21;;;;;;;7.23;5.90;;;22.60;1.00;;;;;;4997277;28;20536;-74
2023/09/08 01:11:47;;;;;;;8.10;6.30;;;22.10;1.00;;;;;;4988778;28;20540;-73
2023/09/08 01:14:13;;;;;;;12.03;6.30;;;22.20;1.00;;;;;;4973360;28;20232;-73
2023/09/08 01:16:42;;;;;;;8.27;5.47;;;22.20;1.00;;;;;;4989389;28;20438;-73
2023/09/08 01:19:12;;;;;;;9.50;6.00;;;22.20;1.00;;;;;;4989276;28;20257;-73
2023/09/08 01:22:21;;;;;;;7.60;5.80;;;22.30;1.00;;;;;;4989737;28;20430;-74
2023/09/08 01:25:09;;;;;;;10.13;6.03;;;22.20;1.00;;;;;;4989365;28;20467;-73
2023/09/08 01:27:37;;;;;;;11.07;6.00;;;22.30;1.00;;;;;;4969330;28;20491;-73
2023/09/08 01:30:05;;;;;;;14.57;6.17;;;22.30;1.00;;;;;;4989111;28;20444;-72
2023/09/08 01:32:31;;;;;;;8.00;5.97;;;22.30;1.00;;;;;;4955634;28;20527;-75
2023/09/08 01:34:59;;;;;;;13.93;5.97;;;22.30;1.00;;;;;;4988996;28;20657;-73
2023/09/08 01:37:24;;;;;;;7.30;5.50;;;22.20;1.00;;;;;;4985093;28;20425;-73
2023/09/08 01:39:50;;;;;;;9.80;5.80;;;22.20;1.00;;;;;;4989272;28;20468;-74
2023/09/08 01:42:15;;;;;;;7.70;5.60;;;22.10;1.00;;;;;;4988126;28;20186;-73
2023/09/08 01:44:41;;;;;;;8.63;6.50;;;22.20;1.00;;;;;;4989009;28;20305;-73
2023/09/08 01:47:06;;;;;;;7.20;5.97;;;22.00;1.00;;;;;;4988891;28;20707;-73
2023/09/08 01:49:32;;;;;;;11.70;6.23;;;22.20;1.00;;;;;;4989063;28;20954;-73
2023/09/08 01:51:57;;;;;;;8.67;6.30;;;22.30;1.00;;;;;;4988933;28;20323;-73
2023/09/08 01:54:23;;;;;;;10.10;6.33;;;22.20;1.00;;;;;;4970265;28;20241;-73
2023/09/08 01:56:48;;;;;;;8.90;6.17;;;22.20;1.00;;;;;;4988961;28;20301;-74
2023/09/08 01:59:14;;;;;;;9.33;6.50;;;22.10;1.00;;;;;;4988807;28;20257;-73
2023/09/08 02:01:40;;;;;;;10.17;6.27;;;22.20;1.00;;;;;;4989441;28;20303;-73
2023/09/08 02:04:05;;;;;;;8.83;5.73;;;22.10;1.00;;;;;;4987902;28;20209;-73
2023/09/08 02:06:31;;;;;;;14.57;6.90;;;22.10;1.00;;;;;;4989181;28;20187;-73
2023/09/08 02:08:56;;;;;;;11.40;6.43;;;22.10;1.00;;;;;;4989137;28;20707;-73
2023/09/08 02:11:22;;;;;;;9.13;6.50;;;22.10;1.00;;;;;;4986503;28;20646;-73
2023/09/08 02:13:47;;;;;;;7.73;6.00;;;22.00;1.00;;;;;;4986802;28;20704;-73
2023/09/08 02:16:16;;;;;;;9.20;6.33;;;22.00;1.00;;;;;;4987178;28;20246;-75
2023/09/08 02:18:42;;;;;;;9.23;6.37;;;22.00;1.00;;;;;;4987120;28;20198;-73
2023/09/08 02:21:08;;;;;;;10.00;6.30;;;22.00;1.00;;;;;;4988334;28;20426;-73
2023/09/08 02:23:33;;;;;;;8.80;6.50;;;21.90;1.00;;;;;;4989399;28;20480;-73
2023/09/08 02:25:59;;;;;;;9.47;6.70;;;21.90;1.00;;;;;;4974501;28;20197;-72
2023/09/08 02:28:25;;;;;;;9.17;6.70;;;21.90;1.00;;;;;;4988291;28;20210;-74
2023/09/08 02:30:50;;;;;;;13.20;6.50;;;21.90;1.00;;;;;;4988803;28;20266;-74
2023/09/08 02:33:16;;;;;;;9.23;6.77;;;21.90;1.00;;;;;;4987786;28;20262;-73
2023/09/08 02:35:41;;;;;;;8.50;6.33;;;21.90;1.00;;;;;;4989069;28;20684;-72
2023/09/08 02:38:07;;;;;;;9.10;6.50;;;21.80;1.00;;;;;;4991448;28;20175;-73
2023/09/08 02:40:34;;;;;;;15.63;6.90;;;21.80;1.00;;;;;;4988854;28;20183;-73
2023/09/08 02:43:00;;;;;;;9.43;6.60;;;23.90;1.00;;;;;;4988382;28;20174;-73
2023/09/08 02:45:26;;;;;;;8.50;6.10;;;21.70;1.00;;;;;;4986175;28;20453;-74
2023/09/08 02:47:52;;;;;;;9.17;6.43;;;21.70;1.00;;;;;;4988486;28;20444;-73
2023/09/08 02:50:17;;;;;;;10.67;7.27;;;21.70;1.00;;;;;;4991991;28;20187;-73
2023/09/08 02:52:43;;;;;;;9.43;6.57;;;21.70;1.00;;;;;;4991756;28;20680;-75
2023/09/08 02:55:09;;;;;;;9.50;6.70;;;21.60;1.00;;;;;;4991503;28;20209;-74
2023/09/08 02:57:34;;;;;;;9.40;6.30;;;21.60;1.00;;;;;;4991863;28;20430;-73
2023/09/08 03:00:00;;;;;;;8.77;6.90;;;21.60;1.00;;;;;;4990758;28;20540;-73
2023/09/08 03:02:26;;;;;;;9.70;6.80;;;21.60;1.00;;;;;;4990536;28;20194;-74
2023/09/08 03:04:52;;;;;;;9.90;7.20;;;21.60;1.00;;;;;;4991847;28;20186;-74
2023/09/08 03:07:17;;;;;;;10.03;6.70;;;23.60;1.00;;;;;;4973686;28;20186;-74
2023/09/08 03:09:43;;;;;;;14.07;6.17;;;21.50;1.00;;;;;;4992103;28;20945;-73
2023/09/08 03:12:08;;;;;;;9.33;7.17;;;21.50;1.00;;;;;;4991526;28;20191;-73
2023/09/08 03:14:34;;;;;;;11.43;6.87;;;21.40;1.00;;;;;;4983884;28;20202;-74
2023/09/08 03:17:00;;;;;;;11.30;6.87;;;21.50;1.00;;;;;;4991637;28;20202;-73
2023/09/08 03:19:25;;;;;;;9.97;6.90;;;21.30;1.00;;;;;;4991511;28;20175;-73
2023/09/08 03:21:51;;;;;;;16.60;7.40;;;21.30;1.00;;;;;;4991153;28;20186;-73
2023/09/08 03:24:16;;;;;;;10.47;7.57;;;21.10;1.00;;;;;;4991055;28;20202;-73
2023/09/08 03:26:42;;;;;;;10.90;7.10;;;21.10;1.00;;;;;;4991430;28;20183;-74
2023/09/08 03:29:07;;;;;;;18.40;7.20;;;21.10;1.00;;;;;;4991733;28;20703;-73
2023/09/08 03:31:33;;;;;;;9.27;6.20;;;21.10;1.00;;;;;;4990476;28;20282;-74
2023/09/08 03:33:59;;;;;;;11.47;7.07;;;21.20;1.00;;;;;;4973560;28;20588;-74
2023/09/08 03:36:24;;;;;;;12.63;6.70;;;21.20;1.00;;;;;;4991108;28;20185;-73
2023/09/08 03:38:50;;;;;;;9.00;6.93;;;21.20;1.00;;;;;;4991734;28;20656;-73
2023/09/08 03:41:15;;;;;;;9.20;6.97;;;21.20;1.00;;;;;;4973217;28;20178;-73
2023/09/08 03:43:41;;;;;;;8.80;6.60;;;21.20;1.00;;;;;;4991097;28;20751;-74
2023/09/08 03:46:06;;;;;;;11.30;7.70;;;21.20;1.00;;;;;;4991073;28;20186;-74
2023/09/08 03:48:32;;;;;;;11.60;7.63;;;21.10;1.00;;;;;;4991180;28;20764;-73
2023/09/08 03:50:58;;;;;;;10.87;9.00;;;21.00;1.00;;;;;;4991123;28;20183;-73
2023/09/08 03:53:24;;;;;;;11.47;8.70;;;20.50;1.00;;;;;;4971868;28;20556;-74
2023/09/08 03:55:49;;;;;;;12.10;8.40;;;20.50;1.00;;;;;;4990931;28;20512;-73
2023/09/08 03:58:15;;;;;;;10.30;7.97;;;20.40;1.00;;;;;;4990743;28;20183;-73
2023/09/08 04:00:41;;;;;;;12.77;8.33;;;20.20;1.00;;;;;;4988694;28;20649;-72
2023/09/08 04:03:07;;;;;;;12.30;9.03;;;20.10;1.00;;;;;;4990872;28;20577;-72
2023/09/08 04:05:33;;;;;;;20.57;9.80;;;20.00;1.00;;;;;;4990434;28;20249;-73
2023/09/08 04:07:58;;;;;;;23.97;14.20;;;19.90;1.00;;;;;;4991064;28;20175;-76
2023/09/08 04:10:24;;;;;;;40.93;20.33;;;19.80;1.00;;;;;;4990471;28;20278;-73
2023/09/08 04:12:49;;;;;;;35.33;21.67;;;19.70;1.00;;;;;;4991082;28;20218;-74
2023/09/08 04:15:15;;;;;;;38.40;22.70;;;19.70;1.00;;;;;;4990128;28;20597;-73
2023/09/08 04:17:40;;;;;;;32.57;22.57;;;19.60;1.00;;;;;;4990618;28;20175;-73
2023/09/08 04:20:07;;;;;;;47.10;23.80;;;19.50;1.00;;;;;;4990562;28;20581;-73
2023/09/08 04:22:33;;;;;;;39.37;23.33;;;19.30;1.00;;;;;;4990131;28;20797;-73
2023/09/08 04:24:59;;;;;;;38.60;24.67;;;19.30;1.00;;;;;;4988358;28;20524;-73
2023/09/08 04:27:25;;;;;;;35.80;22.60;;;19.20;1.00;;;;;;4988111;28;20442;-74
2023/09/08 04:29:50;;;;;;;21.43;14.57;;;19.00;1.00;;;;;;4988173;28;20445;-73
2023/09/08 04:32:16;;;;;;;22.20;15.00;;;18.90;1.00;;;;;;4985038;28;20677;-73
2023/09/08 04:34:42;;;;;;;26.57;14.50;;;18.80;1.00;;;;;;4987525;28;20568;-72
2023/09/08 04:37:08;;;;;;;23.70;15.07;;;18.70;1.00;;;;;;4989792;28;20194;-74
2023/09/08 04:39:35;;;;;;;23.63;15.27;;;18.60;1.00;;;;;;4972459;28;20430;-74
2023/09/08 04:42:01;;;;;;;23.87;13.73;;;18.50;1.00;;;;;;4991235;28;20521;-73
2023/09/08 04:44:26;;;;;;;22.90;13.43;;;18.30;1.00;;;;;;4989231;28;20508;-73
2023/09/08 04:46:53;;;;;;;18.57;12.70;;;18.30;1.00;;;;;;4989953;28;20441;-72
2023/09/08 04:49:19;;;;;;;16.30;12.30;;;18.20;1.00;;;;;;4972493;28;20210;-72
2023/09/08 04:51:45;;;;;;;16.43;11.00;;;18.10;1.00;;;;;;4972555;28;20979;-73
2023/09/08 04:54:10;;;;;;;16.13;11.67;;;17.90;1.00;;;;;;4997251;28;20203;-71
2023/09/08 04:56:35;;;;;;;19.40;10.17;;;17.90;1.00;;;;;;4989296;28;20194;-72
2023/09/08 04:59:02;;;;;;;15.23;11.47;;;17.90;1.00;;;;;;4989697;28;20194;-73
2023/09/08 05:01:29;;;;;;;15.77;11.90;;;17.90;1.00;;;;;;4989325;28;20198;-73
2023/09/08 05:03:55;;;;;;;18.60;12.27;;;17.90;1.00;;;;;;4988955;28;20828;-73
2023/09/08 05:06:20;;;;;;;16.57;12.57;;;17.80;1.00;;;;;;4988890;28;20438;-72
2023/09/08 05:08:46;;;;;;;22.20;11.63;;;17.80;1.00;;;;;;4989973;28;20436;-74
2023/09/08 05:11:11;;;;;;;18.10;12.17;;;17.70;1.00;;;;;;4988958;28;20191;-73
2023/09/08 05:13:37;;;;;;;20.57;11.77;;;17.80;1.00;;;;;;4988922;28;20266;-73
2023/09/08 05:16:11;;;;;;;15.27;11.77;;;17.70;1.00;;;;;;4989697;28;20592;-72
2023/09/08 05:18:40;;;;;;;17.30;12.10;;;17.80;1.00;;;;;;4989090;28;20179;-73
2023/09/08 05:21:06;;;;;;;32.10;22.60;;;17.80;1.00;;;;;;4989558;28;20515;-75
2023/09/08 05:23:32;;;;;;;15.57;11.10;;;17.90;1.00;;;;;;4988929;28;20449;-73
2023/09/08 05:25:58;;;;;;;15.30;10.10;;;17.90;1.00;;;;;;4988947;28;20430;-73
2023/09/08 05:28:23;;;;;;;17.43;12.40;;;17.90;1.00;;;;;;4989057;28;20256;-72
2023/09/08 05:30:52;;;;;;;21.97;11.63;;;17.90;1.00;;;;;;4993291;28;20198;-73
2023/09/08 05:33:18;;;;;;;21.33;11.40;;;17.80;1.00;;;;;;4988689;28;20348;-74
2023/09/08 05:35:45;;;;;;;17.07;12.43;;;17.80;1.00;;;;;;4986671;28;20529;-74
2023/09/08 05:38:11;;;;;;;14.83;11.90;;;17.90;1.00;;;;;;4987201;28;20277;-74
2023/09/08 05:40:37;;;;;;;19.80;12.47;;;18.00;1.00;;;;;;4985652;28;20551;-73
2023/09/08 05:43:03;;;;;;;16.90;12.10;;;18.10;1.00;;;;;;4985058;28;20666;-73
2023/09/08 05:45:31;;;;;;;20.60;12.60;;;18.10;1.00;;;;;;4986381;28;21046;-73
2023/09/08 05:47:56;;;;;;;22.60;12.67;;;18.20;1.00;;;;;;4987172;28;20406;-73
2023/09/08 05:50:22;;;;;;;14.70;12.30;;;18.60;1.00;;;;;;4985677;28;20545;-77
2023/09/08 05:52:47;;;;;;;16.30;12.30;;;18.80;1.00;;;;;;4984489;28;20219;-77
2023/09/08 05:55:13;;;;;;;16.37;13.07;;;18.90;1.00;;;;;;4985866;28;20692;-75
2023/09/08 05:57:38;;;;;;;19.83;12.40;;;18.80;1.00;;;;;;4984790;28;20436;-73
2023/09/08 06:00:04;;;;;;;17.60;13.37;;;18.90;1.00;;;;;;4984235;28;20184;-73
2023/09/08 06:02:30;;;;;;;17.87;12.53;;;19.10;1.00;;;;;;4989455;28;20187;-73
2023/09/08 06:04:56;;;;;;;17.67;12.40;;;19.30;1.00;;;;;;4989573;28;20195;-75
2023/09/08 06:07:22;;;;;;;20.93;11.63;;;19.50;1.00;;;;;;4971904;28;20242;-73
2023/09/08 06:09:47;;;;;;;16.70;11.47;;;19.60;1.00;;;;;;4985555;28;21047;-73
2023/09/08 06:12:13;;;;;;;16.03;11.50;;;19.70;1.00;;;;;;4981402;28;20716;-73
2023/09/08 06:14:38;;;;;;;20.80;11.70;;;19.80;1.00;;;;;;4988023;28;20205;-74
2023/09/08 06:17:03;;;;;;;14.33;11.27;;;20.00;1.00;;;;;;4986456;28;20212;-73
2023/09/08 06:19:29;;;;;;;13.20;10.80;;;20.10;1.00;;;;;;4986112;28;20186;-74
2023/09/08 06:21:54;;;;;;;16.70;10.57;;;20.30;1.00;;;;;;4970354;28;20179;-74
2023/09/08 06:24:20;;;;;;;18.33;12.03;;;20.50;1.00;;;;;;4991294;28;20680;-73
2023/09/08 06:26:45;;;;;;;17.07;10.83;;;20.60;1.00;;;;;;4974290;28;20199;-72
2023/09/08 06:29:11;;;;;;;22.50;12.00;;;20.70;1.00;;;;;;4954586;28;20194;-73
2023/09/08 06:31:37;;;;;;;18.03;12.37;;;21.00;1.00;;;;;;4977860;28;20226;-73
2023/09/08 06:34:02;;;;;;;19.50;12.33;;;21.80;1.00;;;;;;4992600;28;20237;-72
2023/09/08 06:36:28;;;;;;;21.07;12.77;;;22.00;1.00;;;;;;4980855;28;20205;-76
2023/09/08 06:38:53;;;;;;;17.50;11.77;;;22.70;1.00;;;;;;4991339;28;20699;-74
2023/09/08 06:41:19;;;;;;;15.30;11.23;;;23.60;1.00;;;;;;4993060;28;20245;-73
2023/09/08 06:43:45;;;;;;;17.93;12.00;;;24.20;1.00;;;;;;4987771;28;20194;-72
2023/09/08 06:46:10;;;;;;;14.10;10.77;;;25.00;1.00;;;;;;4992929;28;20270;-74
2023/09/08 06:48:36;;;;;;;16.33;10.43;;;25.60;1.00;;;;;;4980358;28;20195;-74
2023/09/08 06:51:02;;;;;;;15.53;10.50;;;26.00;1.00;;;;;;4969127;28;20707;-71
2023/09/08 06:53:27;;;;;;;13.10;9.03;;;25.40;1.00;;;;;;4982239;28;20194;-74
2023/09/08 06:55:53;;;;;;;14.87;9.47;;;25.30;1.00;;;;;;4984616;28;20194;-71
2023/09/08 06:58:19;;;;;;;13.27;9.70;;;25.00;1.00;;;;;;4986694;28;20194;-73
2023/09/08 07:00:44;;;;;;;12.50;8.87;;;25.50;1.00;;;;;;4986865;28;20179;-75
2023/09/08 07:03:10;;;;;;;17.60;9.23;;;25.10;1.00;;;;;;4986684;28;20182;-77
2023/09/08 07:05:35;;;;;;;10.63;7.90;;;25.70;1.00;;;;;;4990810;28;20202;-72
2023/09/08 07:08:01;;;;;;;13.80;7.10;;;26.00;1.00;;;;;;4990404;28;20548;-75
2023/09/08 07:10:27;;;;;;;9.30;6.93;;;25.90;1.00;;;;;;4990186;28;20182;-72
2023/09/08 07:12:52;;;;;;;10.80;7.27;;;25.60;1.00;;;;;;4987205;28;20222;-72
2023/09/08 07:15:18;;;;;;;15.30;7.60;;;25.50;1.00;;;;;;4990127;28;20572;-72
2023/09/08 07:17:43;;;;;;;14.03;7.57;;;25.50;1.00;;;;;;4989135;28;20560;-73
2023/09/08 07:20:09;;;;;;;13.03;7.30;;;25.90;1.00;;;;;;4972972;28;20177;-76
2023/09/08 07:22:35;;;;;;;9.40;7.10;;;25.80;1.00;;;;;;4981427;28;20206;-77
2023/09/08 07:25:00;;;;;;;9.47;7.10;;;26.90;1.00;;;;;;4988858;28;20219;-74
2023/09/08 07:27:26;;;;;;;9.53;6.80;;;27.70;1.00;;;;;;4971821;28;20253;-73
2023/09/08 07:29:51;;;;;;;12.55;6.80;;;28.50;1.00;;;;;;4989787;28;20901;-76
2023/09/08 07:32:17;;;;;;;10.73;6.78;;;29.10;1.00;;;;;;4988427;28;20229;-73
2023/09/08 07:34:43;;;;;;;7.97;6.20;;;29.70;1.00;;;;;;4988597;28;20614;-73
2023/09/08 07:37:09;;;;;;;7.90;5.85;;;30.20;1.00;;;;;;4987894;28;20178;-73
2023/09/08 07:39:35;;;;;;;10.38;6.40;;;30.60;1.00;;;;;;4989828;28;20221;-74
2023/09/08 07:42:01;;;;;;;9.13;6.43;;;31.10;1.00;;;;;;4965556;28;20675;-74
2023/09/08 07:44:27;;;;;;;7.38;6.10;;;31.70;1.00;;;;;;4971408;28;20289;-74
2023/09/08 07:46:55;;;;;;;9.20;6.55;;;32.00;1.00;;;;;;4971304;28;20183;-74
2023/09/08 07:49:20;;;;;;;14.05;6.63;;;32.40;1.00;;;;;;4989625;28;20190;-77
2023/09/08 07:51:46;;;;;;;8.75;6.03;;;32.80;1.00;;;;;;4988129;28;20213;-73
2023/09/08 07:54:12;;;;;;;7.30;5.90;;;33.60;1.00;;;;;;4988735;28;20289;-73
2023/09/08 07:56:38;;;;;;;10.73;5.78;;;33.80;1.00;;;;;;4989436;28;20190;-73
2023/09/08 07:59:03;;;;;;;7.65;6.40;;;34.50;1.00;;;;;;4990386;28;20190;-74
2023/09/08 08:01:29;;;;;;;9.38;6.00;;;35.40;1.00;;;;;;4984560;28;20218;-74
2023/09/08 08:03:54;;;;;;;9.77;5.72;;;35.40;1.00;;;;;;4985390;28;20198;-75
2023/09/08 08:06:20;;;;;;;9.15;6.20;;;35.50;1.00;;;;;;4985708;28;20189;-75
2023/09/08 08:08:46;;;;;;;6.43;5.63;;;35.70;1.00;;;;;;4971608;28;20201;-74
2023/09/08 08:11:13;;;;;;;8.30;5.85;;;36.20;1.00;;;;;;4988038;28;20715;-78
2023/09/08 08:13:39;;;;;;;9.95;5.93;;;35.10;1.00;;;;;;4987205;28;20217;-77
2023/09/08 08:16:04;;;;;;;8.20;5.70;;;35.10;1.00;;;;;;4989415;28;20178;-75
2023/09/08 08:18:30;;;;;;;7.70;5.28;;;35.20;1.00;;;;;;4986685;28;20190;-77
2023/09/08 08:20:55;;;;;;;7.38;5.93;;;35.30;1.00;;;;;;4988407;28;20174;-75
2023/09/08 08:23:21;;;;;;;9.52;5.85;;;35.70;1.00;;;;;;4989200;28;20205;-74
2023/09/08 08:25:46;;;;;;;8.18;5.90;;;35.80;1.00;;;;;;4987610;28;20630;-75
2023/09/08 08:28:12;;;;;;;6.70;5.68;;;36.00;1.00;;;;;;4989052;28;20553;-75
2023/09/08 08:30:37;;;;;;;13.55;5.97;;;36.00;1.00;;;;;;4987941;28;20194;-76
2023/09/08 08:33:04;;;;;;;9.63;5.93;;;36.50;1.00;;;;;;4991884;28;20210;-75
2023/09/08 08:35:29;;;;;;;10.93;5.88;;;36.60;1.00;;;;;;4962571;28;20229;-76
2023/09/08 08:37:58;;;;;;;10.70;6.00;;;37.20;1.00;;;;;;4987831;28;20242;-75
2023/09/08 08:40:26;;;;;;;13.00;6.07;;;37.40;1.00;;;;;;4986502;28;20248;-75
2023/09/08 08:42:55;;;;;;;6.38;5.55;;;37.50;1.00;;;;;;4965629;28;20207;-75
2023/09/08 08:45:23;;;;;;;9.45;5.75;;;37.10;1.00;;;;;;4987679;28;20198;-74
2023/09/08 08:47:49;;;;;;;7.88;5.80;;;37.40;1.00;;;;;;4971380;28;20625;-77
2023/09/08 08:50:17;;;;;;;6.95;5.45;;;38.10;1.00;;;;;;4987944;28;20269;-75
2023/09/08 08:52:42;;;;;;;9.90;5.78;;;38.20;1.00;;;;;;4988378;28;20210;-74
2023/09/08 08:55:08;;;;;;;11.73;5.60;;;38.30;1.00;;;;;;4982284;28;20233;-76
2023/09/08 08:57:36;;;;;;;6.65;5.97;;;38.60;1.00;;;;;;4988551;28;20325;-77
2023/09/08 09:00:07;;;;;;;7.93;5.97;;;38.90;1.00;;;;;;4987630;28;20595;-77
2023/09/08 09:02:33;;;;;;;10.95;5.90;;;38.90;1.00;;;;;;4984176;28;20182;-79
2023/09/08 09:04:59;;;;;;;9.18;6.03;;;39.50;1.00;;;;;;4969867;28;20328;-77
2023/09/08 09:07:26;;;;;;;8.35;5.90;;;39.30;1.00;;;;;;4970412;28;20221;-75
2023/09/08 09:09:52;;;;;;;9.40;5.70;;;38.80;1.00;;;;;;4988105;28;20186;-76
2023/09/08 09:12:17;;;;;;;6.55;5.72;;;39.20;1.00;;;;;;4987262;28;20215;-76
2023/09/08 09:14:49;;;;;;;10.02;5.60;;;39.50;1.00;;;;;;4988337;28;20198;-78
2023/09/08 09:17:15;;;;;;;7.75;5.35;;;39.90;1.00;;;;;;4988365;28;20186;-78
2023/09/08 09:19:41;;;;;;;6.65;5.20;;;39.90;1.00;;;;;;4986734;28;20189;-78
2023/09/08 09:22:06;;;;;;;8.60;5.88;;;39.70;1.00;;;;;;4987710;28;20183;-79
2023/09/08 09:24:38;;;;;;;6.85;5.50;;;40.20;1.00;;;;;;4987281;28;20661;-77
2023/09/08 09:27:08;;;;;;;6.82;5.70;;;40.60;1.00;;;;;;4987914;28;20186;-76
2023/09/08 09:29:43;;;;;;;6.22;5.40;;;41.00;1.00;;;;;;4988155;28;20194;-77
2023/09/08 09:32:08;;;;;;;9.38;5.55;;;41.10;1.00;;;;;;4987846;28;20217;-76
2023/09/08 09:34:34;;;;;;;5.60;5.10;;;41.40;1.00;;;;;;4986906;28;20210;-77
2023/09/08 09:37:00;;;;;;;6.15;5.55;;;41.60;1.00;;;;;;4985536;28;20193;-76
2023/09/08 09:39:26;;;;;;;6.00;5.40;;;42.00;1.00;;;;;;4987028;28;20194;-76
2023/09/08 09:41:57;;;;;;;6.32;5.22;;;42.20;1.00;;;;;;4969660;28;20182;-75
2023/09/08 09:44:23;;;;;;;10.07;5.50;;;42.70;1.00;;;;;;4987522;28;20362;-76
2023/09/08 09:46:52;;;;;;;6.65;5.60;;;42.80;1.00;;;;;;4987438;28;20657;-76
2023/09/08 09:49:18;;;;;;;7.70;5.38;;;42.30;1.00;;;;;;4988239;28;20216;-77
2023/09/08 09:51:44;;;;;;;10.38;5.55;;;41.60;1.00;;;;;;4988009;28;20765;-76
2023/09/08 09:54:11;;;;;;;6.45;5.10;;;41.80;1.00;;;;;;4969694;28;20234;-77
2023/09/08 09:56:39;;;;;;;8.70;6.18;;;42.00;1.00;;;;;;4987967;28;20187;-74
2023/09/08 09:59:07;;;;;;;6.65;5.75;;;41.40;1.00;;;;;;4986808;28;20648;-77
2023/09/08 10:01:34;;;;;;;9.23;5.30;;;40.90;1.00;;;;;;4986909;28;20186;-75
2023/09/08 10:04:00;;;;;;;9.70;5.80;;;42.00;1.00;;;;;;4987167;28;20245;-75
2023/09/08 10:06:26;;;;;;;8.43;5.53;;;42.20;1.00;;;;;;4986906;28;20186;-75
2023/09/08 10:08:52;;;;;;;8.85;5.75;;;42.90;1.00;;;;;;4987987;28;20679;-75
2023/09/08 10:11:21;;;;;;;12.75;5.47;;;43.00;1.00;;;;;;4969718;28;20213;-75
2023/09/08 10:13:50;;;;;;;9.98;4.72;;;43.90;1.00;;;;;;4987185;28;20191;-77
2023/09/08 10:16:19;;;;;;;8.75;5.18;;;44.10;1.00;;;;;;4984368;28;20186;-79
2023/09/08 10:18:47;;;;;;;7.22;5.50;;;44.70;1.00;;;;;;4984049;28;20489;-78
2023/09/08 10:21:16;;;;;;;8.70;5.35;;;45.10;1.00;;;;;;4987108;28;20609;-74
2023/09/08 10:23:50;;;;;;;7.93;4.97;;;45.30;1.00;;;;;;4986685;28;20205;-76
2023/09/08 10:26:17;;;;;;;7.78;5.70;;;45.10;1.00;;;;;;4987138;28;20236;-73
2023/09/08 10:28:43;;;;;;;7.55;4.68;;;44.80;1.00;;;;;;4981305;28;20191;-74
2023/09/08 10:31:10;;;;;;;13.10;5.38;;;45.00;1.00;;;;;;4991715;28;20237;-77
2023/09/08 10:33:37;;;;;;;8.65;5.30;;;44.80;1.00;;;;;;4990337;28;20221;-79
2023/09/08 10:36:05;;;;;;;6.85;5.20;;;44.80;1.00;;;;;;4985803;28;20175;-75
2023/09/08 10:38:34;;;;;;;6.78;4.60;;;44.40;1.00;;;;;;4970521;28;20661;-77
2023/09/08 10:41:15;;;;;;;7.07;5.38;;;44.60;1.00;;;;;;4987144;28;20183;-78
2023/09/08 10:43:45;;;;;;;7.22;5.22;;;45.20;1.00;;;;;;4986400;28;20644;-76
2023/09/08 10:46:21;;;;;;;7.97;5.53;;;45.20;1.00;;;;;;4985531;28;20201;-76
2023/09/08 10:48:46;;;;;;;14.70;4.90;;;45.10;1.00;;;;;;4985590;28;20178;-77
2023/09/08 10:51:17;;;;;;;7.15;4.78;;;45.20;1.00;;;;;;4984560;28;21049;-73
2023/09/08 10:53:42;;;;;;;6.40;5.22;;;45.90;1.00;;;;;;4984781;28;21264;-73
2023/09/08 10:56:08;;;;;;;9.38;4.95;;;46.00;1.00;;;;;;4986680;28;20275;-75
2023/09/08 10:58:38;;;;;;;8.05;4.80;;;46.40;1.00;;;;;;4968334;28;20253;-75
2023/09/08 11:01:04;;;;;;;7.65;5.00;;;47.10;1.00;;;;;;4983299;28;20187;-77
2023/09/08 11:03:39;;;;;;;7.68;4.78;;;47.20;1.00;;;;;;4965341;28;20237;-78
2023/09/08 11:06:08;;;;;;;5.70;5.10;;;47.10;1.00;;;;;;4985155;28;20229;-75
2023/09/08 11:08:38;;;;;;;12.13;5.32;;;46.70;1.00;;;;;;4985694;28;20237;-77
2023/09/08 11:11:04;;;;;;;6.43;4.40;;;46.40;1.00;;;;;;4990888;28;20613;-79
2023/09/08 11:13:29;;;;;;;7.93;4.57;;;45.90;1.00;;;;;;4990470;28;20253;-78
2023/09/08 11:15:56;;;;;;;5.90;5.30;;;45.80;1.00;;;;;;4990695;28;20185;-79
2023/09/08 11:18:28;;;;;;;9.05;5.13;;;45.40;1.00;;;;;;4971311;28;20278;-75
2023/09/08 11:20:55;;;;;;;7.40;4.95;;;45.90;1.00;;;;;;4972499;28;20197;-78
2023/09/08 11:23:21;;;;;;;6.88;4.90;;;46.50;1.00;;;;;;4988775;28;20727;-77
2023/09/08 11:25:47;;;;;;;7.65;4.60;;;47.10;1.00;;;;;;4989904;28;20201;-78
2023/09/08 11:28:13;;;;;;;6.30;5.40;;;46.80;1.00;;;;;;4972806;28;20265;-76
2023/09/08 11:30:39;;;;;;;8.07;4.85;;;46.10;1.00;;;;;;4972314;28;20266;-75
2023/09/08 11:33:26;;;;;;;5.32;4.65;;;46.30;1.00;;;;;;4972144;28;20229;-76
2023/09/08 11:35:53;;;;;;;5.68;4.85;;;47.10;1.00;;;;;;4990710;28;20854;-75
2023/09/08 11:38:25;;;;;;;5.05;4.55;;;47.90;1.00;;;;;;4972601;28;20687;-77
2023/09/08 11:40:51;;;;;;;5.97;4.78;;;47.50;1.00;;;;;;4989944;28;20631;-78
2023/09/08 11:43:16;;;;;;;7.85;4.93;;;46.90;1.00;;;;;;4988994;28;20270;-75
2023/09/08 11:45:43;;;;;;;6.47;4.85;;;45.70;1.00;;;;;;4990178;28;20214;-75
2023/09/08 11:48:08;;;;;;;6.50;4.90;;;45.60;1.00;;;;;;4990409;28;20261;-74
2023/09/08 11:50:34;;;;;;;8.63;4.55;;;46.30;1.00;;;;;;4989934;28;20286;-75
2023/09/08 11:53:00;;;;;;;9.45;4.65;;;47.20;1.00;;;;;;4990255;28;20238;-76
2023/09/08 11:55:26;;;;;;;7.60;4.80;;;47.70;1.00;;;;;;4972141;28;20195;-75
2023/09/08 11:58:01;;;;;;;10.48;4.97;;;47.70;1.00;;;;;;4987801;28;20192;-76
2023/09/08 12:00:27;;;;;;;5.80;4.70;;;46.90;1.00;;;;;;4986833;28;20806;-74
2023/09/08 12:02:53;;;;;;;5.95;5.20;;;46.90;1.00;;;;;;4986144;28;20182;-76
2023/09/08 12:05:27;;;;;;;7.63;4.78;;;46.10;1.00;;;;;;4987714;28;20210;-74
2023/09/08 12:07:56;;;;;;;5.70;5.00;;;46.10;1.00;;;;;;4990229;28;20609;-76
2023/09/08 12:10:22;;;;;;;10.02;5.35;;;45.80;1.00;;;;;;4987423;28;20672;-77
2023/09/08 12:12:53;;;;;;;7.55;5.05;;;45.90;1.00;;;;;;4988015;28;20218;-75
2023/09/08 12:15:32;;;;;;;7.60;5.45;;;46.90;1.00;;;;;;4986675;28;20245;-75
2023/09/08 12:17:59;;;;;;;5.53;4.93;;;46.80;1.00;;;;;;4973428;28;20551;-79
2023/09/08 12:20:25;;;;;;;6.95;4.97;;;46.70;1.00;;;;;;4988734;28;20189;-75
2023/09/08 12:22:51;;;;;;;7.20;5.15;;;45.90;1.00;;;;;;4986441;28;20187;-77
2023/09/08 12:25:17;;;;;;;8.23;5.15;;;45.20;1.00;;;;;;4971743;28;20296;-78
2023/09/08 12:27:44;;;;;;;6.65;5.35;;;44.90;1.00;;;;;;4968572;28;20601;-77
2023/09/08 12:30:17;;;;;;;6.93;5.10;;;44.70;1.00;;;;;;4987720;28;20190;-75
2023/09/08 12:32:45;;;;;;;6.97;5.03;;;44.80;1.00;;;;;;4986409;28;20216;-77
2023/09/08 12:35:11;;;;;;;5.97;5.20;;;45.50;1.00;;;;;;4967569;28;20194;-77
2023/09/08 12:37:38;;;;;;;9.30;5.15;;;46.20;1.00;;;;;;4972905;28;20214;-76
2023/09/08 12:40:05;;;;;;;9.15;4.80;;;46.40;1.00;;;;;;4988177;28;20376;-77
2023/09/08 12:42:30;;;;;;;5.70;5.10;;;46.60;1.00;;;;;;4987952;28;20182;-76
2023/09/08 12:44:56;;;;;;;6.20;4.95;;;47.30;1.00;;;;;;4987472;28;20541;-77
2023/09/08 12:47:21;;;;;;;5.70;5.07;;;47.00;1.00;;;;;;4986049;28;20217;-76